Time;durP1;ratioP1;P1;durP2;ratioP2;P2;SDS_P1;SDS_P2;PMS_P1;PMS_P2;Temp;Humidity;BMP_temperature;BMP_pressure;BME280_temperature;BME280_humidity;BME280_pressure;Samples;Min_cycle;Max_cycle;Signal;HPM_P1;HPM_P2
2023/09/11 00:08:34;;;;;;;;;;;17.30;99.90;;;;;;21059661;28;19916;-76
2023/09/11 00:18:35;;;;;;;;;;;17.50;99.90;;;;;;21076743;28;19912;-76
2023/09/11 00:28:36;;;;;;;;;;;17.30;99.90;;;;;;21076153;28;19923;-76
2023/09/11 00:38:36;;;;;;;;;;;16.90;99.90;;;;;;21073643;28;19923;-76
2023/09/11 00:48:37;;;;;;;;;;;17.00;99.90;;;;;;21057200;28;19916;-76
2023/09/11 00:58:38;;;;;;;;;;;17.20;99.90;;;;;;21063997;28;20010;-76
2023/09/11 01:08:38;;;;;;;;;;;17.20;99.90;;;;;;21053806;28;19920;-76
2023/09/11 01:18:42;;;;;;;;;;;17.20;99.90;;;;;;21032248;28;19924;-76
2023/09/11 01:29:02;;;;;;;;;;;17.00;99.90;;;;;;21066949;28;19966;-76
2023/09/11 01:39:03;;;;;;;;;;;16.40;99.90;;;;;;21081691;22;19935;-73
2023/09/11 01:49:07;;;;;;;;;;;16.30;99.90;;;;;;21047867;28;19920;-74
2023/09/11 01:59:08;;;;;;;;;;;16.40;99.90;;;;;;21063399;28;19912;-75
2023/09/11 02:09:08;;;;;;;;;;;16.50;99.90;;;;;;21045738;28;20292;-74
2023/09/11 02:19:09;;;;;;;;;;;16.10;99.90;;;;;;21063212;28;19912;-74
2023/09/11 02:29:09;;;;;;;;;;;16.10;99.90;;;;;;21059599;28;19916;-74
2023/09/11 02:39:10;;;;;;;;;;;15.90;99.90;;;;;;21056143;28;19919;-74
2023/09/11 02:49:11;;;;;;;;;;;16.10;99.90;;;;;;21081298;28;19916;-74
2023/09/11 02:59:12;;;;;;;;;;;16.20;99.90;;;;;;21048793;28;19912;-74
2023/09/11 03:09:12;;;;;;;;;;;16.40;99.90;;;;;;21082022;28;20311;-74
2023/09/11 03:19:14;;;;;;;;;;;16.40;99.90;;;;;;21051762;28;20388;-74
2023/09/11 03:29:15;;;;;;;;;;;16.40;99.90;;;;;;21069040;28;20014;-74
2023/09/11 03:39:16;;;;;;;;;;;16.30;99.90;;;;;;21044760;28;19916;-74
2023/09/11 03:49:17;;;;;;;;;;;16.40;99.90;;;;;;21053501;28;19999;-74
2023/09/11 03:59:18;;;;;;;;;;;16.30;99.90;;;;;;21036247;28;20366;-74
2023/09/11 04:09:19;;;;;;;;;;;16.50;99.90;;;;;;21042741;28;19988;-74
2023/09/11 04:19:20;;;;;;;;;;;16.60;99.90;;;;;;21036708;28;19917;-74
2023/09/11 04:29:21;;;;;;;;;;;16.70;99.90;;;;;;21046564;28;20401;-74
2023/09/11 04:39:22;;;;;;;;;;;16.60;99.90;;;;;;21052648;28;19920;-74
2023/09/11 04:49:23;;;;;;;;;;;16.60;99.90;;;;;;21042195;28;19958;-74
2023/09/11 04:59:24;;;;;;;;;;;16.70;99.90;;;;;;21022175;28;19962;-74
2023/09/11 05:09:25;;;;;;;;;;;16.60;99.90;;;;;;21062863;28;20259;-74
2023/09/11 05:19:25;;;;;;;;;;;16.50;99.90;;;;;;21040906;28;19913;-74
2023/09/11 05:29:26;;;;;;;;;;;16.50;99.90;;;;;;21054738;28;19916;-74
2023/09/11 05:39:27;;;;;;;;;;;16.60;99.90;;;;;;21050303;28;19961;-74
2023/09/11 05:49:28;;;;;;;;;;;16.90;99.90;;;;;;21076001;28;19920;-74
2023/09/11 05:59:29;;;;;;;;;;;17.10;99.90;;;;;;21084502;28;20456;-74
2023/09/11 06:09:30;;;;;;;;;;;17.30;99.90;;;;;;21064402;28;20040;-74
2023/09/11 06:19:31;;;;;;;;;;;17.60;99.90;;;;;;21069052;28;19912;-74
2023/09/11 06:29:31;;;;;;;;;;;18.00;99.90;;;;;;21077832;28;19946;-74
2023/09/11 06:39:32;;;;;;;;;;;18.50;99.90;;;;;;21074703;28;19916;-74
2023/09/11 06:49:33;;;;;;;;;;;18.80;99.90;;;;;;21063117;28;19920;-74
2023/09/11 06:59:34;;;;;;;;;;;18.90;99.90;;;;;;21060918;28;20366;-74
2023/09/11 07:09:34;;;;;;;;;;;19.40;99.90;;;;;;21081945;28;19916;-75
2023/09/11 07:19:35;;;;;;;;;;;19.70;99.90;;;;;;21084640;28;19951;-75
2023/09/11 07:29:35;;;;;;;;;;;20.20;99.90;;;;;;21056165;28;19939;-75
2023/09/11 07:39:36;;;;;;;;;;;21.20;99.90;;;;;;21065713;28;19916;-75
2023/09/11 07:49:37;;;;;;;;;;;21.50;99.90;;;;;;21060044;28;19916;-75
2023/09/11 07:59:37;;;;;;;;;;;22.80;99.90;;;;;;21064778;28;19942;-75
2023/09/11 08:09:38;;;;;;;;;;;23.90;99.90;;;;;;21073615;28;19916;-75
2023/09/11 08:19:39;;;;;;;;;;;24.90;99.90;;;;;;21076548;28;19951;-76
2023/09/11 08:29:42;;;;;;;;;;;25.10;99.90;;;;;;21075773;28;20275;-75
2023/09/11 08:39:42;;;;;;;;;;;25.30;99.90;;;;;;21075046;28;19916;-76
2023/09/11 08:49:44;;;;;;;;;;;26.20;99.90;;;;;;21056421;28;20329;-77
2023/09/11 08:59:46;;;;;;;;;;;27.50;99.90;;;;;;21073728;28;19946;-75
2023/09/11 09:09:47;;;;;;;;;;;28.00;99.90;;;;;;21073823;28;20373;-76
2023/09/11 09:19:48;;;;;;;;;;;29.10;99.90;;;;;;21045162;28;19969;-76
2023/09/11 09:29:48;;;;;;;;;;;29.70;99.90;;;;;;21051257;28;19967;-77
2023/09/11 09:39:50;;;;;;;;;;;30.00;99.90;;;;;;21066569;28;19920;-77
2023/09/11 09:49:54;;;;;;;;;;;30.80;99.90;;;;;;21064851;28;19916;-76
2023/09/11 09:59:57;;;;;;;;;;;30.60;99.90;;;;;;21059626;28;19974;-77
2023/09/11 10:10:17;;;;;;;;;;;32.00;99.90;;;;;;21070705;28;20386;-76
2023/09/11 10:20:18;;;;;;;;;;;32.40;99.90;;;;;;21079771;28;20335;-76
2023/09/11 10:30:21;;;;;;;;;;;32.50;99.90;;;;;;21085445;28;20007;-77
2023/09/11 10:40:31;;;;;;;;;;;32.90;99.90;;;;;;21084494;28;19916;-76
2023/09/11 10:50:36;;;;;;;;;;;33.00;99.90;;;;;;21078135;28;20323;-77
2023/09/11 11:00:37;;;;;;;;;;;33.40;99.90;;;;;;21057916;28;19958;-77
2023/09/11 11:10:41;;;;;;;;;;;33.90;97.20;;;;;;21078031;28;19951;-76
2023/09/11 11:21:02;;;;;;;;;;;33.80;97.20;;;;;;21063559;28;19912;-77
2023/09/11 11:31:05;;;;;;;;;;;33.90;96.90;;;;;;21079305;28;19923;-77
2023/09/11 11:41:07;;;;;;;;;;;33.60;95.00;;;;;;21079769;28;19917;-76
2023/09/11 11:51:08;;;;;;;;;;;33.20;97.00;;;;;;21054004;28;19923;-77
2023/09/11 12:01:09;;;;;;;;;;;33.20;95.70;;;;;;21078309;28;20129;-76
2023/09/11 12:11:10;;;;;;;;;;;32.30;96.50;;;;;;21077269;28;20007;-77
2023/09/11 12:21:10;;;;;;;;;;;33.30;94.90;;;;;;21076586;28;19971;-76
2023/09/11 12:31:11;;;;;;;;;;;33.30;88.50;;;;;;21075749;28;19955;-77
2023/09/11 12:41:12;;;;;;;;;;;33.20;88.50;;;;;;21074525;28;19916;-77
2023/09/11 12:51:13;;;;;;;;;;;33.50;87.80;;;;;;21074695;28;19916;-76
2023/09/11 13:01:14;;;;;;;;;;;33.60;87.90;;;;;;21074252;28;19985;-76
2023/09/11 13:11:15;;;;;;;;;;;33.10;88.10;;;;;;21073446;28;19916;-76
2023/09/11 13:21:15;;;;;;;;;;;33.20;83.90;;;;;;21073077;28;19912;-77
2023/09/11 13:31:16;;;;;;;;;;;34.10;83.20;;;;;;21063707;28;20386;-77
2023/09/11 13:41:17;;;;;;;;;;;33.10;86.60;;;;;;21055332;28;20285;-76
2023/09/11 13:51:17;;;;;;;;;;;33.50;86.00;;;;;;21075270;28;19922;-76
2023/09/11 14:01:18;;;;;;;;;;;33.60;84.20;;;;;;21087310;28;19947;-76
2023/09/11 14:11:19;;;;;;;;;;;33.00;79.60;;;;;;21085949;28;20332;-77
2023/09/11 14:21:20;;;;;;;;;;;33.20;81.40;;;;;;21085094;28;20340;-76
2023/09/11 14:31:20;;;;;;;;;;;32.60;78.50;;;;;;21057040;28;19916;-76
2023/09/11 14:41:21;;;;;;;;;;;32.40;80.50;;;;;;21068310;28;19965;-76
2023/09/11 14:51:22;;;;;;;;;;;33.50;79.00;;;;;;21058926;28;19963;-75
2023/09/11 15:01:23;;;;;;;;;;;34.00;78.00;;;;;;21079906;28;19919;-75
2023/09/11 15:11:24;;;;;;;;;;;33.10;80.30;;;;;;21071207;28;20019;-76
2023/09/11 15:21:25;;;;;;;;;;;33.20;79.60;;;;;;21056450;28;19962;-76
2023/09/11 15:31:25;;;;;;;;;;;33.60;77.00;;;;;;21061334;28;20386;-73
2023/09/11 15:41:26;;;;;;;;;;;34.10;73.70;;;;;;21053845;28;19920;-75
2023/09/11 15:51:27;;;;;;;;;;;33.30;78.90;;;;;;21071586;28;20007;-76
2023/09/11 16:01:27;;;;;;;;;;;33.50;77.30;;;;;;21075246;28;20294;-74
2023/09/11 16:11:28;;;;;;;;;;;33.20;80.60;;;;;;21068230;28;20470;-76
2023/09/11 16:21:29;;;;;;;;;;;32.50;82.10;;;;;;21042616;28;19913;-76
2023/09/11 16:31:29;;;;;;;;;;;32.20;84.00;;;;;;21033450;28;20272;-75
2023/09/11 16:41:30;;;;;;;;;;;31.40;90.30;;;;;;21068244;28;19959;-76
2023/09/11 16:51:31;;;;;;;;;;;30.20;93.00;;;;;;21055473;28;19961;-74
2023/09/11 17:01:31;;;;;;;;;;;29.40;99.90;;;;;;21054354;28;19916;-73
2023/09/11 17:11:32;;;;;;;;;;;29.30;99.90;;;;;;21070147;28;19916;-73
2023/09/11 17:21:33;;;;;;;;;;;28.20;99.90;;;;;;21071026;28;20331;-74
2023/09/11 17:31:33;;;;;;;;;;;27.60;99.90;;;;;;21053118;28;19978;-74
2023/09/11 17:41:34;;;;;;;;;;;27.50;99.90;;;;;;21079893;28;19920;-74
2023/09/11 17:51:35;;;;;;;;;;;26.60;99.90;;;;;;21085980;28;19920;-73
2023/09/11 18:01:36;;;;;;;;;;;26.00;99.90;;;;;;21084949;28;19912;-75
2023/09/11 18:11:37;;;;;;;;;;;25.30;99.90;;;;;;21076502;28;19966;-74
2023/09/11 18:21:40;;;;;;;;;;;24.60;99.90;;;;;;21083010;28;20455;-74
2023/09/11 18:31:40;;;;;;;;;;;23.90;99.90;;;;;;21083241;28;19931;-74
2023/09/11 18:41:41;;;;;;;;;;;23.90;99.90;;;;;;21067813;28;19968;-74
2023/09/11 18:51:42;;;;;;;;;;;23.30;99.90;;;;;;21063662;28;19916;-74
2023/09/11 19:01:44;;;;;;;;;;;22.80;99.90;;;;;;21058963;28;19912;-74
2023/09/11 19:11:45;;;;;;;;;;;22.70;99.90;;;;;;21059462;28;19920;-74
2023/09/11 19:21:45;;;;;;;;;;;22.30;99.90;;;;;;21062320;28;19955;-74
2023/09/11 19:31:46;;;;;;;;;;;21.90;99.90;;;;;;21074916;28;20278;-74
2023/09/11 19:41:47;;;;;;;;;;;21.70;99.90;;;;;;21062006;28;20360;-74
2023/09/11 19:51:47;;;;;;;;;;;21.70;99.90;;;;;;21059510;28;20359;-73
2023/09/11 20:01:48;;;;;;;;;;;20.70;99.90;;;;;;21059713;28;20002;-74
2023/09/11 20:11:49;;;;;;;;;;;20.60;99.90;;;;;;21058766;28;20460;-73
2023/09/11 20:21:49;;;;;;;;;;;20.60;99.90;;;;;;21062779;28;19926;-74
2023/09/11 20:31:50;;;;;;;;;;;20.70;99.90;;;;;;21075496;28;20306;-73
2023/09/11 20:41:51;;;;;;;;;;;20.20;99.90;;;;;;21075200;28;19947;-74
2023/09/11 20:51:52;;;;;;;;;;;20.50;99.90;;;;;;21074098;28;19923;-73
2023/09/11 21:01:52;;;;;;;;;;;20.60;99.90;;;;;;21055147;28;19919;-74
2023/09/11 21:11:53;;;;;;;;;;;20.20;99.90;;;;;;21072910;28;20374;-73
2023/09/11 21:21:54;;;;;;;;;;;19.80;99.90;;;;;;21072567;28;19934;-74
2023/09/11 21:31:54;;;;;;;;;;;19.90;99.90;;;;;;21072809;28;20015;-73
2023/09/11 21:41:55;;;;;;;;;;;19.30;99.90;;;;;;21058854;28;19966;-73
2023/09/11 21:51:58;;;;;;;;;;;19.40;99.90;;;;;;21025573;28;20234;-74
2023/09/11 22:01:59;;;;;;;;;;;19.10;99.90;;;;;;21071231;28;19912;-73
2023/09/11 22:11:59;;;;;;;;;;;18.90;99.90;;;;;;21063130;28;19923;-74
2023/09/11 22:22:00;;;;;;;;;;;18.60;99.90;;;;;;21072701;28;20294;-73
2023/09/11 22:32:00;;;;;;;;;;;19.00;99.90;;;;;;21084984;28;19923;-73
2023/09/11 22:42:01;;;;;;;;;;;19.20;99.90;;;;;;21065870;28;19923;-73
2023/09/11 22:52:02;;;;;;;;;;;19.50;99.90;;;;;;21083647;28;20263;-73
2023/09/11 23:02:02;;;;;;;;;;;19.60;99.90;;;;;;21057597;28;19912;-73
2023/09/11 23:12:03;;;;;;;;;;;19.60;99.90;;;;;;21076753;28;19916;-74
2023/09/11 23:22:04;;;;;;;;;;;19.50;99.90;;;;;;21081131;28;20306;-73
2023/09/11 23:32:05;;;;;;;;;;;19.50;99.90;;;;;;21080545;28;20366;-73
2023/09/11 23:42:05;;;;;;;;;;;19.30;99.90;;;;;;21079409;28;20003;-73
2023/09/11 23:52:06;;;;;;;;;;;18.70;99.90;;;;;;21060489;28;19923;-73
